AAL726 KMIA-KLAS
Flight info
| Callsign | AAL726 |
|---|---|
| Flight time | 4h 59m |
| Altitude | 34000 |
| Route | GLADZ4 BAGGS REMIS Y280 LEV J86 INW HAHAA RKSTR4 |
| Aircraft | B738/M-SDE2E3FGHIRWXY/LB1 |
Departure
| Time | 2026-05-07 13:49 |
|---|---|
| Airport | Miami International Airport (KMIA) |
Arrival
| Time | 2026-05-07 18:48 |
|---|---|
| Airport | Harry Reid International Airport (KLAS) |
| Time | Latitude | Longitude | Altitude | Speed | Heading |
|---|---|---|---|---|---|
| 2026-05-07 13:02 | 25.79678 | -80.28140 | 14 ft | 0 kts | 47° |
| 2026-05-07 13:35 | 25.79671 | -80.28149 | 14 ft | 4 kts | 47° |
| 2026-05-07 13:35 | 25.79656 | -80.28168 | 17 ft | 4 kts | 45° |
| 2026-05-07 13:35 | 25.79642 | -80.28177 | 15 ft | 4 kts | 320° |
| 2026-05-07 13:36 | 25.79630 | -80.28155 | 16 ft | 4 kts | 290° |
| 2026-05-07 13:36 | 25.79627 | -80.28145 | 17 ft | 0 kts | 290° |
| 2026-05-07 13:40 | 25.79630 | -80.28156 | 14 ft | 6 kts | 287° |
| 2026-05-07 13:41 | 25.79632 | -80.28238 | 14 ft | 14 kts | 266° |
| 2026-05-07 13:41 | 25.79629 | -80.28361 | 14 ft | 16 kts | 268° |
| 2026-05-07 13:41 | 25.79625 | -80.28446 | 14 ft | 11 kts | 266° |
| 2026-05-07 13:41 | 25.79616 | -80.28526 | 15 ft | 10 kts | 258° |
| 2026-05-07 13:42 | 25.79601 | -80.28602 | 15 ft | 10 kts | 255° |
| 2026-05-07 13:42 | 25.79585 | -80.28676 | 14 ft | 10 kts | 259° |
| 2026-05-07 13:42 | 25.79571 | -80.28748 | 14 ft | 9 kts | 258° |
| 2026-05-07 13:42 | 25.79596 | -80.28805 | 14 ft | 9 kts | 339° |
| 2026-05-07 13:43 | 25.79659 | -80.28812 | 14 ft | 9 kts | 358° |
| 2026-05-07 13:43 | 25.79721 | -80.28816 | 14 ft | 9 kts | 359° |
| 2026-05-07 13:43 | 25.79783 | -80.28817 | 14 ft | 9 kts | 359° |
| 2026-05-07 13:43 | 25.79853 | -80.28822 | 14 ft | 11 kts | 358° |
| 2026-05-07 13:44 | 25.79921 | -80.28842 | 14 ft | 10 kts | 311° |
| 2026-05-07 13:44 | 25.79928 | -80.28919 | 14 ft | 10 kts | 266° |
| 2026-05-07 13:44 | 25.79925 | -80.28995 | 14 ft | 10 kts | 268° |
| 2026-05-07 13:44 | 25.79924 | -80.29069 | 14 ft | 10 kts | 266° |
| 2026-05-07 13:45 | 25.79919 | -80.29151 | 14 ft | 12 kts | 267° |
| 2026-05-07 13:45 | 25.79916 | -80.29253 | 14 ft | 15 kts | 265° |
| 2026-05-07 13:45 | 25.79910 | -80.29371 | 14 ft | 16 kts | 268° |
| 2026-05-07 13:45 | 25.79904 | -80.29503 | 14 ft | 18 kts | 266° |
| 2026-05-07 13:46 | 25.79897 | -80.29650 | 14 ft | 20 kts | 267° |
| 2026-05-07 13:46 | 25.79894 | -80.29749 | 13 ft | 11 kts | 265° |
| 2026-05-07 13:46 | 25.79889 | -80.29843 | 13 ft | 14 kts | 269° |
| 2026-05-07 13:46 | 25.79898 | -80.29924 | 15 ft | 10 kts | 292° |
| 2026-05-07 13:47 | 25.79937 | -80.30002 | 13 ft | 13 kts | 301° |
| 2026-05-07 13:47 | 25.79981 | -80.30081 | 13 ft | 9 kts | 304° |
| 2026-05-07 13:47 | 25.80027 | -80.30123 | 13 ft | 9 kts | 346° |
| 2026-05-07 13:47 | 25.80074 | -80.30099 | 13 ft | 9 kts | 80° |
| 2026-05-07 13:48 | 25.80077 | -80.30021 | 12 ft | 12 kts | 85° |
| 2026-05-07 13:48 | 25.80086 | -80.29794 | 12 ft | 64 kts | 88° |
| 2026-05-07 13:48 | 25.80118 | -80.29023 | 16 ft | 134 kts | 88° |
| 2026-05-07 13:48 | 25.80167 | -80.27775 | 119 ft | 183 kts | 88° |
| 2026-05-07 13:49 | 25.80285 | -80.26315 | 826 ft | 196 kts | 85° |
| 2026-05-07 13:49 | 25.80385 | -80.24817 | 1656 ft | 203 kts | 90° |
| 2026-05-07 13:49 | 25.80440 | -80.23167 | 2075 ft | 221 kts | 90° |
| 2026-05-07 13:49 | 25.80494 | -80.21420 | 2742 ft | 229 kts | 89° |
| 2026-05-07 13:50 | 25.80546 | -80.19650 | 3535 ft | 234 kts | 89° |
| 2026-05-07 13:50 | 25.80789 | -80.17762 | 3854 ft | 262 kts | 66° |
| 2026-05-07 13:50 | 25.81998 | -80.16231 | 4526 ft | 271 kts | 30° |
| 2026-05-07 13:50 | 25.83809 | -80.15716 | 5389 ft | 273 kts | 2° |
| 2026-05-07 13:51 | 25.85725 | -80.15717 | 6197 ft | 277 kts | 0° |
| 2026-05-07 13:51 | 25.87673 | -80.15711 | 6931 ft | 281 kts | 1° |
| 2026-05-07 13:51 | 25.89618 | -80.15767 | 7652 ft | 285 kts | 351° |
| 2026-05-07 13:51 | 25.91536 | -80.16389 | 8394 ft | 289 kts | 342° |
| 2026-05-07 13:52 | 25.93460 | -80.17108 | 9093 ft | 295 kts | 343° |
| 2026-05-07 13:52 | 25.95437 | -80.17818 | 9776 ft | 300 kts | 343° |
| 2026-05-07 13:52 | 25.97366 | -80.18742 | 10370 ft | 310 kts | 325° |
| 2026-05-07 13:52 | 25.98837 | -80.20584 | 10536 ft | 334 kts | 296° |
| 2026-05-07 13:53 | 25.99448 | -80.23140 | 10725 ft | 354 kts | 277° |
| 2026-05-07 13:53 | 25.99732 | -80.25936 | 10855 ft | 374 kts | 276° |
| 2026-05-07 13:53 | 25.99915 | -80.28886 | 11023 ft | 390 kts | 270° |
| 2026-05-07 13:53 | 25.99866 | -80.31921 | 11473 ft | 395 kts | 268° |
| 2026-05-07 13:54 | 25.99795 | -80.34993 | 11978 ft | 399 kts | 269° |
| 2026-05-07 13:54 | 25.99762 | -80.38081 | 12546 ft | 400 kts | 270° |
| 2026-05-07 13:54 | 25.99678 | -80.41140 | 13156 ft | 401 kts | 263° |
| 2026-05-07 13:54 | 25.98825 | -80.44084 | 13731 ft | 404 kts | 242° |
| 2026-05-07 13:55 | 25.97229 | -80.46654 | 14254 ft | 405 kts | 233° |
| 2026-05-07 13:55 | 25.95463 | -80.49115 | 14710 ft | 408 kts | 232° |
| 2026-05-07 13:55 | 25.93667 | -80.51578 | 15169 ft | 411 kts | 232° |
| 2026-05-07 13:55 | 25.91867 | -80.54060 | 15569 ft | 414 kts | 232° |
| 2026-05-07 13:56 | 25.90064 | -80.56570 | 16025 ft | 416 kts | 233° |
| 2026-05-07 13:56 | 25.88264 | -80.59099 | 16489 ft | 418 kts | 233° |
| 2026-05-07 13:56 | 25.86457 | -80.61648 | 16931 ft | 420 kts | 233° |
| 2026-05-07 13:56 | 25.84647 | -80.64209 | 17353 ft | 423 kts | 233° |
| 2026-05-07 13:57 | 25.82822 | -80.66789 | 17783 ft | 425 kts | 234° |
| 2026-05-07 13:57 | 25.80990 | -80.69376 | 18198 ft | 427 kts | 234° |
| 2026-05-07 13:57 | 25.79158 | -80.71986 | 18576 ft | 429 kts | 236° |
| 2026-05-07 13:57 | 25.77792 | -80.74899 | 18900 ft | 426 kts | 255° |
| 2026-05-07 13:58 | 25.77015 | -80.78060 | 19335 ft | 424 kts | 257° |
| 2026-05-07 13:58 | 25.76223 | -80.81219 | 19707 ft | 426 kts | 256° |
| 2026-05-07 13:58 | 25.75393 | -80.84345 | 20049 ft | 428 kts | 255° |
| 2026-05-07 13:58 | 25.74530 | -80.87510 | 20399 ft | 429 kts | 255° |
| 2026-05-07 13:59 | 25.73658 | -80.90682 | 20750 ft | 431 kts | 255° |
| 2026-05-07 13:59 | 25.72786 | -80.93863 | 21099 ft | 432 kts | 255° |
| 2026-05-07 13:59 | 25.71912 | -80.97055 | 21439 ft | 433 kts | 255° |
| 2026-05-07 13:59 | 25.71036 | -81.00253 | 21775 ft | 434 kts | 255° |
| 2026-05-07 14:00 | 25.70158 | -81.03461 | 22104 ft | 435 kts | 255° |
| 2026-05-07 14:00 | 25.69274 | -81.06686 | 22408 ft | 437 kts | 255° |
| 2026-05-07 14:00 | 25.68389 | -81.09915 | 22724 ft | 438 kts | 255° |
| 2026-05-07 14:00 | 25.67503 | -81.13142 | 23011 ft | 439 kts | 255° |
| 2026-05-07 14:01 | 25.66620 | -81.16355 | 23255 ft | 442 kts | 255° |
| 2026-05-07 14:01 | 25.65723 | -81.19626 | 23527 ft | 443 kts | 256° |
| 2026-05-07 14:01 | 25.65262 | -81.22982 | 23738 ft | 441 kts | 272° |
| 2026-05-07 14:01 | 25.65653 | -81.26341 | 23994 ft | 440 kts | 285° |
| 2026-05-07 14:02 | 25.66759 | -81.29498 | 24227 ft | 441 kts | 296° |
| 2026-05-07 14:02 | 25.68148 | -81.32533 | 24420 ft | 443 kts | 297° |
| 2026-05-07 14:02 | 25.69578 | -81.35573 | 29374 ft | 446 kts | 296° |
| 2026-05-07 14:02 | 25.71010 | -81.38641 | 29553 ft | 448 kts | 296° |
| 2026-05-07 14:03 | 25.72444 | -81.41710 | 29791 ft | 448 kts | 296° |
| 2026-05-07 14:03 | 25.73872 | -81.44790 | 30020 ft | 449 kts | 296° |
| 2026-05-07 14:03 | 25.75292 | -81.47883 | 30263 ft | 449 kts | 296° |
| 2026-05-07 14:03 | 25.76699 | -81.50969 | 30542 ft | 447 kts | 296° |
| 2026-05-07 14:04 | 25.78082 | -81.54014 | 30823 ft | 446 kts | 296° |
| 2026-05-07 14:04 | 25.79474 | -81.57087 | 31084 ft | 445 kts | 296° |
| 2026-05-07 14:04 | 25.80865 | -81.60159 | 31332 ft | 445 kts | 296° |
| 2026-05-07 14:04 | 25.82252 | -81.63226 | 31610 ft | 444 kts | 296° |
| 2026-05-07 14:05 | 25.83639 | -81.66292 | 31894 ft | 443 kts | 295° |
| 2026-05-07 14:05 | 25.85019 | -81.69344 | 32168 ft | 442 kts | 295° |
| 2026-05-07 14:05 | 25.86397 | -81.72393 | 32438 ft | 441 kts | 295° |
| 2026-05-07 14:05 | 25.87776 | -81.75445 | 32714 ft | 440 kts | 296° |
| 2026-05-07 14:06 | 25.89380 | -81.78337 | 32968 ft | 442 kts | 308° |
| 2026-05-07 14:06 | 25.91580 | -81.80668 | 33228 ft | 444 kts | 320° |
| 2026-05-07 14:06 | 25.94076 | -81.82767 | 33548 ft | 443 kts | 321° |
| 2026-05-07 14:06 | 25.96517 | -81.84768 | 33797 ft | 443 kts | 321° |
| 2026-05-07 14:07 | 25.99005 | -81.86801 | 34043 ft | 443 kts | 321° |
| 2026-05-07 14:07 | 26.03971 | -81.90901 | 34098 ft | 444 kts | 320° |
| 2026-05-07 14:08 | 26.08899 | -81.95026 | 34095 ft | 442 kts | 320° |
| 2026-05-07 14:08 | 26.13788 | -81.99145 | 34093 ft | 440 kts | 320° |
| 2026-05-07 14:09 | 26.18652 | -82.03251 | 34089 ft | 438 kts | 320° |
| 2026-05-07 14:09 | 26.23509 | -82.07356 | 34089 ft | 438 kts | 320° |
| 2026-05-07 14:10 | 26.28364 | -82.11462 | 34090 ft | 438 kts | 320° |
| 2026-05-07 14:10 | 26.33226 | -82.15577 | 34087 ft | 439 kts | 320° |
| 2026-05-07 14:11 | 26.38072 | -82.19684 | 34088 ft | 441 kts | 320° |
| 2026-05-07 14:11 | 26.42960 | -82.23830 | 34086 ft | 442 kts | 320° |
| 2026-05-07 14:12 | 26.47870 | -82.28000 | 34091 ft | 443 kts | 320° |
| 2026-05-07 14:12 | 26.52779 | -82.32173 | 34086 ft | 444 kts | 320° |
| 2026-05-07 14:13 | 26.57666 | -82.36333 | 34081 ft | 444 kts | 320° |
| 2026-05-07 14:13 | 26.62591 | -82.40528 | 34087 ft | 445 kts | 320° |
| 2026-05-07 14:14 | 26.67509 | -82.44723 | 34091 ft | 445 kts | 319° |
| 2026-05-07 14:14 | 26.72426 | -82.48922 | 34081 ft | 444 kts | 319° |
| 2026-05-07 14:15 | 26.77336 | -82.53119 | 34078 ft | 444 kts | 319° |
| 2026-05-07 14:15 | 26.82237 | -82.57313 | 34081 ft | 443 kts | 319° |
| 2026-05-07 14:16 | 26.87095 | -82.61477 | 34084 ft | 442 kts | 319° |
| 2026-05-07 14:16 | 26.91980 | -82.65667 | 34084 ft | 442 kts | 319° |
| 2026-05-07 14:17 | 26.96861 | -82.69858 | 34087 ft | 441 kts | 319° |
| 2026-05-07 14:17 | 27.01738 | -82.74051 | 34086 ft | 441 kts | 319° |
| 2026-05-07 14:18 | 27.06602 | -82.78239 | 34088 ft | 441 kts | 319° |
| 2026-05-07 14:18 | 27.11427 | -82.82426 | 34074 ft | 439 kts | 315° |
| 2026-05-07 14:18 | 27.13427 | -82.84965 | 34084 ft | 432 kts | 300° |
| 2026-05-07 14:19 | 27.14773 | -82.87952 | 34079 ft | 428 kts | 289° |
| 2026-05-07 14:19 | 27.16773 | -82.94251 | 34078 ft | 428 kts | 288° |
| 2026-05-07 14:20 | 27.18728 | -83.00592 | 34078 ft | 430 kts | 288° |
| 2026-05-07 14:20 | 27.20715 | -83.06929 | 34081 ft | 430 kts | 288° |
| 2026-05-07 14:21 | 27.22728 | -83.13271 | 34085 ft | 431 kts | 288° |
| 2026-05-07 14:21 | 27.24750 | -83.19625 | 34081 ft | 432 kts | 288° |
| 2026-05-07 14:22 | 27.26760 | -83.25949 | 34077 ft | 432 kts | 288° |
| 2026-05-07 14:22 | 27.28782 | -83.32327 | 34079 ft | 433 kts | 288° |
| 2026-05-07 14:23 | 27.30797 | -83.38691 | 34079 ft | 432 kts | 288° |
| 2026-05-07 14:23 | 27.32809 | -83.45061 | 34094 ft | 432 kts | 288° |
| 2026-05-07 14:24 | 27.34818 | -83.51429 | 34083 ft | 431 kts | 288° |
| 2026-05-07 14:24 | 27.36818 | -83.57783 | 34076 ft | 430 kts | 288° |
| 2026-05-07 14:25 | 27.38810 | -83.64126 | 34076 ft | 429 kts | 288° |
| 2026-05-07 14:25 | 27.40799 | -83.70460 | 34083 ft | 429 kts | 288° |
| 2026-05-07 14:26 | 27.42779 | -83.76786 | 34074 ft | 428 kts | 288° |
| 2026-05-07 14:26 | 27.44742 | -83.83069 | 34071 ft | 428 kts | 288° |
| 2026-05-07 14:27 | 27.46714 | -83.89391 | 34072 ft | 428 kts | 288° |
| 2026-05-07 14:27 | 27.48684 | -83.95721 | 34081 ft | 428 kts | 288° |
| 2026-05-07 14:28 | 27.50653 | -84.02053 | 34071 ft | 428 kts | 288° |
| 2026-05-07 14:28 | 27.52289 | -84.07324 | 34066 ft | 429 kts | 288° |
| 2026-05-07 14:29 | 27.54258 | -84.13682 | 34081 ft | 429 kts | 288° |
| 2026-05-07 14:29 | 27.56221 | -84.20030 | 34075 ft | 429 kts | 288° |
| 2026-05-07 14:30 | 27.58182 | -84.26382 | 34072 ft | 430 kts | 287° |
| 2026-05-07 14:30 | 27.60146 | -84.32756 | 34071 ft | 430 kts | 287° |
| 2026-05-07 14:31 | 27.62092 | -84.39084 | 34064 ft | 430 kts | 287° |
| 2026-05-07 14:31 | 27.64049 | -84.45459 | 34068 ft | 430 kts | 287° |
| 2026-05-07 14:32 | 27.66004 | -84.51839 | 34067 ft | 430 kts | 287° |
| 2026-05-07 14:32 | 27.67953 | -84.58212 | 34075 ft | 430 kts | 287° |
| 2026-05-07 14:33 | 27.69890 | -84.64559 | 34070 ft | 429 kts | 287° |
| 2026-05-07 14:33 | 27.71832 | -84.70929 | 34074 ft | 429 kts | 287° |
| 2026-05-07 14:34 | 27.73770 | -84.77301 | 34054 ft | 429 kts | 287° |
| 2026-05-07 14:34 | 27.75702 | -84.83666 | 34063 ft | 429 kts | 287° |
| 2026-05-07 14:35 | 27.77633 | -84.90039 | 34058 ft | 428 kts | 287° |
| 2026-05-07 14:35 | 27.79556 | -84.96399 | 34063 ft | 428 kts | 287° |
| 2026-05-07 14:36 | 27.81479 | -85.02769 | 34067 ft | 428 kts | 287° |
| 2026-05-07 14:36 | 27.83397 | -85.09133 | 34056 ft | 428 kts | 287° |
| 2026-05-07 14:37 | 27.85302 | -85.15469 | 34067 ft | 427 kts | 287° |
| 2026-05-07 14:37 | 27.88172 | -85.25034 | 34069 ft | 428 kts | 287° |
| 2026-05-07 14:38 | 27.90085 | -85.31365 | 34066 ft | 428 kts | 287° |
| 2026-05-07 14:38 | 27.92021 | -85.37728 | 34069 ft | 428 kts | 287° |
| 2026-05-07 14:39 | 27.93958 | -85.44110 | 34053 ft | 429 kts | 287° |
| 2026-05-07 14:39 | 27.95881 | -85.50463 | 34057 ft | 429 kts | 287° |
| 2026-05-07 14:40 | 27.97808 | -85.56849 | 34059 ft | 429 kts | 287° |
| 2026-05-07 14:40 | 27.99731 | -85.63234 | 34069 ft | 429 kts | 287° |
| 2026-05-07 14:41 | 28.01659 | -85.69643 | 34054 ft | 429 kts | 286° |
| 2026-05-07 14:41 | 28.03580 | -85.76046 | 34052 ft | 428 kts | 286° |
| 2026-05-07 14:42 | 28.05480 | -85.82387 | 34054 ft | 427 kts | 286° |
| 2026-05-07 14:42 | 28.07384 | -85.88756 | 34054 ft | 427 kts | 286° |
| 2026-05-07 14:43 | 28.09284 | -85.95123 | 34054 ft | 426 kts | 286° |
| 2026-05-07 14:43 | 28.11179 | -86.01487 | 34054 ft | 425 kts | 286° |
| 2026-05-07 14:44 | 28.13067 | -86.07838 | 34052 ft | 425 kts | 286° |
| 2026-05-07 14:44 | 28.14941 | -86.14155 | 34051 ft | 425 kts | 286° |
| 2026-05-07 14:45 | 28.16822 | -86.20506 | 34052 ft | 425 kts | 286° |
| 2026-05-07 14:45 | 28.18698 | -86.26854 | 34051 ft | 425 kts | 286° |
| 2026-05-07 14:46 | 28.20574 | -86.33211 | 34052 ft | 425 kts | 286° |
| 2026-05-07 14:46 | 28.22449 | -86.39582 | 34050 ft | 425 kts | 286° |
| 2026-05-07 14:47 | 28.24318 | -86.45941 | 34047 ft | 426 kts | 286° |
| 2026-05-07 14:47 | 28.26190 | -86.52324 | 34045 ft | 426 kts | 286° |
| 2026-05-07 14:48 | 28.28056 | -86.58699 | 34047 ft | 426 kts | 285° |
| 2026-05-07 14:48 | 28.29920 | -86.65079 | 34046 ft | 426 kts | 285° |
| 2026-05-07 14:49 | 28.31785 | -86.71470 | 34047 ft | 426 kts | 285° |
| 2026-05-07 14:49 | 28.33642 | -86.77811 | 34061 ft | 426 kts | 285° |
| 2026-05-07 14:50 | 28.35513 | -86.84198 | 34047 ft | 426 kts | 285° |
| 2026-05-07 14:50 | 28.37375 | -86.90572 | 34048 ft | 425 kts | 285° |
| 2026-05-07 14:51 | 28.39233 | -86.96943 | 34055 ft | 424 kts | 285° |
| 2026-05-07 14:51 | 28.41070 | -87.03261 | 34045 ft | 424 kts | 285° |
| 2026-05-07 14:52 | 28.42914 | -87.09611 | 34047 ft | 423 kts | 285° |
| 2026-05-07 14:52 | 28.44752 | -87.15955 | 34045 ft | 422 kts | 285° |
| 2026-05-07 14:53 | 28.46584 | -87.22291 | 34046 ft | 422 kts | 285° |
| 2026-05-07 14:53 | 28.48412 | -87.28625 | 34047 ft | 421 kts | 285° |
| 2026-05-07 14:54 | 28.50238 | -87.34965 | 34048 ft | 421 kts | 285° |
| 2026-05-07 14:54 | 28.52059 | -87.41301 | 34046 ft | 421 kts | 285° |
| 2026-05-07 14:55 | 28.53878 | -87.47639 | 34046 ft | 422 kts | 285° |
| 2026-05-07 14:55 | 28.55684 | -87.53947 | 34047 ft | 422 kts | 285° |
| 2026-05-07 14:56 | 28.57498 | -87.60294 | 34046 ft | 422 kts | 285° |
| 2026-05-07 14:56 | 28.59310 | -87.66648 | 34046 ft | 422 kts | 285° |
| 2026-05-07 14:57 | 28.61122 | -87.73012 | 34047 ft | 422 kts | 285° |
| 2026-05-07 14:57 | 28.62929 | -87.79373 | 34045 ft | 422 kts | 285° |
| 2026-05-07 14:58 | 28.64737 | -87.85749 | 34073 ft | 422 kts | 285° |
| 2026-05-07 14:58 | 28.66525 | -87.92070 | 34050 ft | 421 kts | 284° |
| 2026-05-07 14:59 | 28.68328 | -87.98454 | 34040 ft | 421 kts | 284° |
| 2026-05-07 14:59 | 28.70104 | -88.04756 | 34043 ft | 420 kts | 284° |
| 2026-05-07 15:00 | 28.71885 | -88.11087 | 34049 ft | 419 kts | 284° |
| 2026-05-07 15:00 | 28.73654 | -88.17402 | 34045 ft | 418 kts | 284° |
| 2026-05-07 15:01 | 28.75419 | -88.23721 | 34044 ft | 418 kts | 284° |
| 2026-05-07 15:01 | 28.77180 | -88.30033 | 34044 ft | 418 kts | 284° |
| 2026-05-07 15:02 | 28.78924 | -88.36300 | 34042 ft | 417 kts | 284° |
| 2026-05-07 15:02 | 28.80680 | -88.42621 | 34042 ft | 418 kts | 284° |
| 2026-05-07 15:03 | 28.82433 | -88.48943 | 34041 ft | 418 kts | 284° |
| 2026-05-07 15:03 | 28.84183 | -88.55268 | 34041 ft | 418 kts | 284° |
| 2026-05-07 15:04 | 28.85931 | -88.61597 | 34040 ft | 418 kts | 284° |
| 2026-05-07 15:04 | 28.87666 | -88.67892 | 34041 ft | 419 kts | 284° |
| 2026-05-07 15:05 | 28.89243 | -88.74276 | 34043 ft | 417 kts | 281° |
| 2026-05-07 15:05 | 28.90598 | -88.80721 | 34035 ft | 417 kts | 280° |
| 2026-05-07 15:06 | 28.91940 | -88.87179 | 34049 ft | 418 kts | 280° |
| 2026-05-07 15:06 | 28.93297 | -88.93633 | 34038 ft | 418 kts | 280° |
| 2026-05-07 15:07 | 28.94660 | -89.00081 | 34037 ft | 418 kts | 280° |
| 2026-05-07 15:07 | 28.96015 | -89.06491 | 34051 ft | 417 kts | 280° |
| 2026-05-07 15:08 | 28.97374 | -89.12935 | 34036 ft | 416 kts | 280° |
| 2026-05-07 15:08 | 28.98723 | -89.19351 | 34037 ft | 415 kts | 280° |
| 2026-05-07 15:09 | 29.00068 | -89.25760 | 34044 ft | 414 kts | 279° |
| 2026-05-07 15:09 | 29.01405 | -89.32152 | 34037 ft | 414 kts | 279° |
| 2026-05-07 15:10 | 29.02732 | -89.38514 | 34038 ft | 413 kts | 279° |
| 2026-05-07 15:10 | 29.04061 | -89.44900 | 34035 ft | 413 kts | 279° |
| 2026-05-07 15:11 | 29.05389 | -89.51297 | 34036 ft | 413 kts | 279° |
| 2026-05-07 15:11 | 29.06716 | -89.57701 | 34035 ft | 413 kts | 279° |
| 2026-05-07 15:12 | 29.08037 | -89.64099 | 34034 ft | 414 kts | 279° |
| 2026-05-07 15:12 | 29.09348 | -89.70463 | 34032 ft | 414 kts | 279° |
| 2026-05-07 15:13 | 29.10666 | -89.76874 | 34033 ft | 414 kts | 279° |
| 2026-05-07 15:13 | 29.11983 | -89.83298 | 34033 ft | 414 kts | 279° |
| 2026-05-07 15:14 | 29.13297 | -89.89724 | 34032 ft | 414 kts | 279° |
| 2026-05-07 15:14 | 29.14606 | -89.96148 | 34032 ft | 415 kts | 279° |
| 2026-05-07 15:15 | 29.15913 | -90.02570 | 34029 ft | 415 kts | 279° |
| 2026-05-07 15:15 | 29.17217 | -90.08999 | 34029 ft | 415 kts | 279° |
| 2026-05-07 15:16 | 29.18418 | -90.15407 | 34033 ft | 414 kts | 277° |
| 2026-05-07 15:16 | 29.19490 | -90.21877 | 34032 ft | 413 kts | 277° |
| 2026-05-07 15:17 | 29.20554 | -90.28345 | 34033 ft | 413 kts | 277° |
| 2026-05-07 15:17 | 29.21449 | -90.33717 | 34032 ft | 413 kts | 277° |
| 2026-05-07 15:18 | 29.22708 | -90.41239 | 34038 ft | 413 kts | 277° |
| 2026-05-07 15:18 | 29.23615 | -90.46654 | 34029 ft | 413 kts | 277° |
| 2026-05-07 15:19 | 29.24687 | -90.53070 | 34029 ft | 412 kts | 277° |
| 2026-05-07 15:19 | 29.25760 | -90.59517 | 34034 ft | 412 kts | 277° |
| 2026-05-07 15:20 | 29.26827 | -90.65949 | 34022 ft | 411 kts | 277° |
| 2026-05-07 15:20 | 29.27891 | -90.72381 | 34023 ft | 411 kts | 277° |
| 2026-05-07 15:21 | 29.28952 | -90.78812 | 34033 ft | 410 kts | 277° |
| 2026-05-07 15:21 | 29.30008 | -90.85242 | 34026 ft | 411 kts | 277° |
| 2026-05-07 15:22 | 29.31062 | -90.91672 | 34025 ft | 411 kts | 276° |
| 2026-05-07 15:22 | 29.32116 | -90.98123 | 34028 ft | 411 kts | 276° |
| 2026-05-07 15:23 | 29.33159 | -91.04530 | 34031 ft | 411 kts | 276° |
| 2026-05-07 15:23 | 29.34206 | -91.10978 | 34028 ft | 412 kts | 276° |
| 2026-05-07 15:24 | 29.35251 | -91.17439 | 34026 ft | 412 kts | 276° |
| 2026-05-07 15:24 | 29.36294 | -91.23904 | 34038 ft | 412 kts | 276° |
| 2026-05-07 15:25 | 29.37335 | -91.30378 | 34038 ft | 412 kts | 276° |
| 2026-05-07 15:25 | 29.38373 | -91.36851 | 34036 ft | 413 kts | 276° |
| 2026-05-07 15:26 | 29.39380 | -91.43150 | 34040 ft | 413 kts | 276° |
| 2026-05-07 15:26 | 29.40404 | -91.49584 | 34041 ft | 413 kts | 276° |
| 2026-05-07 15:27 | 29.41431 | -91.56052 | 34047 ft | 413 kts | 276° |
| 2026-05-07 15:27 | 29.42458 | -91.62545 | 34043 ft | 413 kts | 276° |
| 2026-05-07 15:28 | 29.43483 | -91.69046 | 34041 ft | 414 kts | 276° |
| 2026-05-07 15:28 | 29.44506 | -91.75552 | 34039 ft | 414 kts | 276° |
| 2026-05-07 15:29 | 29.45522 | -91.82040 | 34041 ft | 413 kts | 276° |
| 2026-05-07 15:29 | 29.46531 | -91.88500 | 34041 ft | 413 kts | 276° |
| 2026-05-07 15:30 | 29.47542 | -91.94994 | 34048 ft | 413 kts | 275° |
| 2026-05-07 15:30 | 29.48550 | -92.01494 | 34043 ft | 413 kts | 275° |
| 2026-05-07 15:31 | 29.49556 | -92.08000 | 34041 ft | 413 kts | 275° |
| 2026-05-07 15:31 | 29.50553 | -92.14466 | 34042 ft | 413 kts | 275° |
| 2026-05-07 15:32 | 29.51551 | -92.20967 | 34048 ft | 413 kts | 275° |
| 2026-05-07 15:32 | 29.52549 | -92.27484 | 34044 ft | 414 kts | 275° |
| 2026-05-07 15:33 | 29.53540 | -92.33985 | 34054 ft | 414 kts | 275° |
| 2026-05-07 15:33 | 29.54530 | -92.40497 | 34044 ft | 414 kts | 275° |
| 2026-05-07 15:34 | 29.55517 | -92.47010 | 34046 ft | 413 kts | 275° |
| 2026-05-07 15:34 | 29.56492 | -92.53466 | 34047 ft | 413 kts | 275° |
| 2026-05-07 15:35 | 29.57470 | -92.59965 | 34056 ft | 413 kts | 275° |
| 2026-05-07 15:35 | 29.58445 | -92.66470 | 34058 ft | 413 kts | 275° |
| 2026-05-07 15:36 | 29.59418 | -92.72977 | 34057 ft | 413 kts | 275° |
| 2026-05-07 15:36 | 29.60386 | -92.79478 | 34056 ft | 413 kts | 275° |
| 2026-05-07 15:37 | 29.61350 | -92.85975 | 34060 ft | 412 kts | 275° |
| 2026-05-07 15:37 | 29.62310 | -92.92463 | 34063 ft | 412 kts | 275° |
| 2026-05-07 15:38 | 29.63265 | -92.98955 | 34063 ft | 412 kts | 275° |
| 2026-05-07 15:38 | 29.64216 | -93.05448 | 34074 ft | 412 kts | 275° |
| 2026-05-07 15:39 | 29.65157 | -93.11893 | 34063 ft | 411 kts | 275° |
| 2026-05-07 15:39 | 29.66100 | -93.18369 | 34063 ft | 410 kts | 275° |
| 2026-05-07 15:40 | 29.67037 | -93.24834 | 34069 ft | 410 kts | 275° |
| 2026-05-07 15:40 | 29.67971 | -93.31304 | 34060 ft | 410 kts | 275° |
| 2026-05-07 15:41 | 29.68902 | -93.37764 | 34063 ft | 409 kts | 275° |
| 2026-05-07 15:41 | 29.69823 | -93.44183 | 34060 ft | 409 kts | 275° |
| 2026-05-07 15:42 | 29.70745 | -93.50635 | 34067 ft | 408 kts | 275° |
| 2026-05-07 15:42 | 29.71665 | -93.57097 | 34060 ft | 409 kts | 275° |
| 2026-05-07 15:43 | 29.72581 | -93.63548 | 34063 ft | 408 kts | 275° |
| 2026-05-07 15:43 | 29.73493 | -93.69998 | 34063 ft | 409 kts | 275° |
| 2026-05-07 15:44 | 29.74403 | -93.76457 | 34063 ft | 409 kts | 275° |
| 2026-05-07 15:44 | 29.75311 | -93.82924 | 34069 ft | 409 kts | 275° |
| 2026-05-07 15:45 | 29.76209 | -93.89347 | 34067 ft | 409 kts | 275° |
| 2026-05-07 15:45 | 29.77109 | -93.95807 | 34092 ft | 408 kts | 275° |
| 2026-05-07 15:46 | 29.78448 | -94.05455 | 34068 ft | 405 kts | 275° |
| 2026-05-07 15:47 | 29.79332 | -94.11851 | 34062 ft | 404 kts | 275° |
| 2026-05-07 15:47 | 29.80211 | -94.18242 | 34065 ft | 403 kts | 275° |
| 2026-05-07 15:48 | 29.81084 | -94.24612 | 34072 ft | 402 kts | 274° |
| 2026-05-07 15:48 | 29.81952 | -94.30967 | 34064 ft | 402 kts | 274° |
| 2026-05-07 15:49 | 29.82816 | -94.37318 | 34064 ft | 401 kts | 274° |
| 2026-05-07 15:49 | 29.83673 | -94.43639 | 34070 ft | 401 kts | 274° |
| 2026-05-07 15:50 | 29.84531 | -94.49985 | 34068 ft | 401 kts | 274° |
| 2026-05-07 15:50 | 29.85390 | -94.56339 | 34070 ft | 401 kts | 274° |
| 2026-05-07 15:51 | 29.86246 | -94.62698 | 34084 ft | 402 kts | 274° |
| 2026-05-07 15:51 | 29.87099 | -94.69062 | 34091 ft | 402 kts | 274° |
| 2026-05-07 15:52 | 29.87943 | -94.75384 | 34079 ft | 402 kts | 274° |
| 2026-05-07 15:52 | 29.88791 | -94.81754 | 34089 ft | 402 kts | 274° |
| 2026-05-07 15:53 | 29.89636 | -94.88129 | 34081 ft | 402 kts | 274° |
| 2026-05-07 15:53 | 29.90478 | -94.94502 | 34086 ft | 402 kts | 274° |
| 2026-05-07 15:54 | 29.91318 | -95.00885 | 34079 ft | 403 kts | 274° |
| 2026-05-07 15:54 | 29.92155 | -95.07270 | 34085 ft | 403 kts | 274° |
| 2026-05-07 15:55 | 29.92990 | -95.13666 | 34083 ft | 403 kts | 274° |
| 2026-05-07 15:55 | 29.93822 | -95.20067 | 34097 ft | 404 kts | 274° |
| 2026-05-07 15:56 | 29.94646 | -95.26427 | 34082 ft | 404 kts | 274° |
| 2026-05-07 15:56 | 29.95474 | -95.32835 | 34084 ft | 404 kts | 274° |
| 2026-05-07 15:57 | 29.96384 | -95.39241 | 34084 ft | 406 kts | 275° |
| 2026-05-07 15:57 | 29.97446 | -95.45651 | 34081 ft | 407 kts | 275° |
| 2026-05-07 15:58 | 29.98509 | -95.52088 | 34082 ft | 408 kts | 275° |
| 2026-05-07 15:58 | 29.99551 | -95.58527 | 34110 ft | 408 kts | 275° |
| 2026-05-07 15:59 | 30.00586 | -95.64958 | 34047 ft | 407 kts | 274° |
| 2026-05-07 15:59 | 30.01588 | -95.71362 | 34044 ft | 405 kts | 274° |
| 2026-05-07 16:00 | 30.02606 | -95.77740 | 34055 ft | 403 kts | 275° |
| 2026-05-07 16:00 | 30.03614 | -95.84089 | 34031 ft | 402 kts | 274° |
| 2026-05-07 16:01 | 30.04609 | -95.90404 | 34028 ft | 401 kts | 274° |
| 2026-05-07 16:01 | 30.05606 | -95.96748 | 33991 ft | 401 kts | 274° |
| 2026-05-07 16:02 | 30.06598 | -96.03080 | 33977 ft | 401 kts | 274° |
| 2026-05-07 16:02 | 30.07587 | -96.09429 | 33955 ft | 401 kts | 274° |
| 2026-05-07 16:03 | 30.08568 | -96.15772 | 33924 ft | 401 kts | 274° |
| 2026-05-07 16:03 | 30.09545 | -96.22125 | 33919 ft | 402 kts | 274° |
| 2026-05-07 16:04 | 30.10521 | -96.28479 | 33933 ft | 402 kts | 274° |
| 2026-05-07 16:04 | 30.11494 | -96.34838 | 33922 ft | 402 kts | 274° |
| 2026-05-07 16:05 | 30.12458 | -96.41158 | 33951 ft | 402 kts | 274° |
| 2026-05-07 16:05 | 30.13425 | -96.47512 | 33942 ft | 402 kts | 274° |
| 2026-05-07 16:06 | 30.14391 | -96.53892 | 33938 ft | 403 kts | 274° |
| 2026-05-07 16:06 | 30.15193 | -96.59203 | 33980 ft | 404 kts | 274° |
| 2026-05-07 16:07 | 30.16157 | -96.65603 | 34031 ft | 405 kts | 274° |
| 2026-05-07 16:07 | 30.17119 | -96.72017 | 34081 ft | 405 kts | 274° |
| 2026-05-07 16:08 | 30.18081 | -96.78441 | 34114 ft | 406 kts | 274° |
| 2026-05-07 16:08 | 30.19039 | -96.84867 | 34163 ft | 405 kts | 274° |
| 2026-05-07 16:09 | 30.19999 | -96.91310 | 34177 ft | 407 kts | 274° |
| 2026-05-07 16:09 | 30.20952 | -96.97782 | 34166 ft | 409 kts | 274° |
| 2026-05-07 16:10 | 30.21913 | -97.04289 | 34174 ft | 412 kts | 274° |
| 2026-05-07 16:10 | 30.22868 | -97.10783 | 34152 ft | 413 kts | 274° |
| 2026-05-07 16:11 | 30.23828 | -97.17326 | 34078 ft | 412 kts | 274° |
| 2026-05-07 16:11 | 30.24783 | -97.23863 | 34076 ft | 412 kts | 274° |
| 2026-05-07 16:12 | 30.25737 | -97.30408 | 34099 ft | 412 kts | 274° |
| 2026-05-07 16:12 | 30.26684 | -97.36936 | 34102 ft | 412 kts | 274° |
| 2026-05-07 16:13 | 30.27629 | -97.43472 | 34101 ft | 411 kts | 274° |
| 2026-05-07 16:13 | 30.28569 | -97.50001 | 34098 ft | 411 kts | 274° |
| 2026-05-07 16:14 | 30.29505 | -97.56524 | 34109 ft | 411 kts | 274° |
| 2026-05-07 16:14 | 30.30438 | -97.63041 | 34121 ft | 409 kts | 273° |
| 2026-05-07 16:15 | 30.31356 | -97.69483 | 34104 ft | 407 kts | 273° |
| 2026-05-07 16:15 | 30.32272 | -97.75938 | 34117 ft | 406 kts | 273° |
| 2026-05-07 16:16 | 30.33184 | -97.82388 | 34159 ft | 404 kts | 273° |
| 2026-05-07 16:16 | 30.34088 | -97.88805 | 34168 ft | 404 kts | 273° |
| 2026-05-07 16:17 | 30.34990 | -97.95227 | 34173 ft | 403 kts | 273° |
| 2026-05-07 16:17 | 30.35887 | -98.01642 | 34178 ft | 403 kts | 274° |
| 2026-05-07 16:18 | 30.36781 | -98.08061 | 34164 ft | 404 kts | 274° |
| 2026-05-07 16:18 | 30.37668 | -98.14444 | 34160 ft | 404 kts | 274° |
| 2026-05-07 16:19 | 30.38559 | -98.20885 | 34156 ft | 405 kts | 274° |
| 2026-05-07 16:19 | 30.39447 | -98.27326 | 34167 ft | 405 kts | 274° |
| 2026-05-07 16:20 | 30.40334 | -98.33786 | 34172 ft | 406 kts | 274° |
| 2026-05-07 16:20 | 30.41138 | -98.39648 | 34182 ft | 406 kts | 274° |
| 2026-05-07 16:21 | 30.42018 | -98.46083 | 34112 ft | 407 kts | 274° |
| 2026-05-07 16:21 | 30.42901 | -98.52564 | 34108 ft | 407 kts | 274° |
| 2026-05-07 16:22 | 30.43782 | -98.59045 | 34116 ft | 407 kts | 274° |
| 2026-05-07 16:22 | 30.44658 | -98.65528 | 34118 ft | 407 kts | 274° |
| 2026-05-07 16:23 | 30.45532 | -98.72015 | 34122 ft | 407 kts | 273° |
| 2026-05-07 16:23 | 30.46402 | -98.78492 | 34123 ft | 406 kts | 273° |
| 2026-05-07 16:24 | 30.47262 | -98.84929 | 34123 ft | 406 kts | 273° |
| 2026-05-07 16:24 | 30.48124 | -98.91401 | 34116 ft | 406 kts | 273° |
| 2026-05-07 16:25 | 30.48982 | -98.97867 | 34123 ft | 406 kts | 273° |
| 2026-05-07 16:25 | 30.49839 | -99.04353 | 34118 ft | 406 kts | 273° |
| 2026-05-07 16:26 | 30.50685 | -99.10787 | 34114 ft | 406 kts | 273° |
| 2026-05-07 16:26 | 30.51535 | -99.17266 | 34121 ft | 406 kts | 273° |
| 2026-05-07 16:27 | 30.52383 | -99.23763 | 34120 ft | 407 kts | 273° |
| 2026-05-07 16:27 | 30.53229 | -99.30264 | 34119 ft | 407 kts | 273° |
| 2026-05-07 16:28 | 30.54066 | -99.36724 | 34117 ft | 407 kts | 273° |
| 2026-05-07 16:28 | 30.54905 | -99.43224 | 34128 ft | 407 kts | 273° |
| 2026-05-07 16:29 | 30.55741 | -99.49728 | 34150 ft | 407 kts | 272° |
| 2026-05-07 16:29 | 30.56572 | -99.56222 | 34146 ft | 406 kts | 272° |
| 2026-05-07 16:30 | 30.57399 | -99.62710 | 34154 ft | 406 kts | 272° |
| 2026-05-07 16:30 | 30.58216 | -99.69149 | 34163 ft | 405 kts | 272° |
| 2026-05-07 16:31 | 30.59035 | -99.75617 | 34180 ft | 405 kts | 272° |
| 2026-05-07 16:31 | 30.59848 | -99.82075 | 34171 ft | 403 kts | 271° |
| 2026-05-07 16:32 | 30.60648 | -99.88505 | 34159 ft | 401 kts | 271° |
| 2026-05-07 16:32 | 30.61437 | -99.94910 | 34142 ft | 400 kts | 271° |
| 2026-05-07 16:33 | 30.62221 | -100.01293 | 34138 ft | 398 kts | 271° |
| 2026-05-07 16:33 | 30.62994 | -100.07613 | 34131 ft | 398 kts | 271° |
| 2026-05-07 16:34 | 30.63769 | -100.13975 | 34119 ft | 397 kts | 271° |
| 2026-05-07 16:34 | 30.64539 | -100.20319 | 34116 ft | 397 kts | 271° |
| 2026-05-07 16:35 | 30.65308 | -100.26680 | 34124 ft | 397 kts | 271° |
| 2026-05-07 16:35 | 30.66072 | -100.33029 | 34121 ft | 397 kts | 271° |
| 2026-05-07 16:36 | 30.66834 | -100.39383 | 34116 ft | 397 kts | 271° |
| 2026-05-07 16:36 | 30.67593 | -100.45741 | 34121 ft | 397 kts | 271° |
| 2026-05-07 16:37 | 30.68344 | -100.52054 | 34117 ft | 397 kts | 271° |
| 2026-05-07 16:37 | 30.69096 | -100.58412 | 34118 ft | 397 kts | 271° |
| 2026-05-07 16:38 | 30.69847 | -100.64783 | 34126 ft | 398 kts | 271° |
| 2026-05-07 16:38 | 30.70598 | -100.71181 | 34121 ft | 400 kts | 271° |
| 2026-05-07 16:39 | 30.71347 | -100.77588 | 34127 ft | 400 kts | 271° |
| 2026-05-07 16:39 | 30.72094 | -100.84007 | 34119 ft | 401 kts | 271° |
| 2026-05-07 16:40 | 30.72841 | -100.90432 | 34139 ft | 401 kts | 271° |
| 2026-05-07 16:40 | 30.73583 | -100.96828 | 34150 ft | 401 kts | 271° |
| 2026-05-07 16:41 | 30.74325 | -101.03257 | 34162 ft | 401 kts | 271° |
| 2026-05-07 16:41 | 30.75064 | -101.09688 | 34172 ft | 401 kts | 271° |
| 2026-05-07 16:42 | 30.75800 | -101.16120 | 34175 ft | 401 kts | 271° |
| 2026-05-07 16:42 | 30.76531 | -101.22551 | 34184 ft | 401 kts | 271° |
| 2026-05-07 16:43 | 30.77260 | -101.28982 | 34118 ft | 401 kts | 271° |
| 2026-05-07 16:43 | 30.77981 | -101.35370 | 34108 ft | 401 kts | 270° |
| 2026-05-07 16:44 | 30.78704 | -101.41809 | 34121 ft | 401 kts | 270° |
| 2026-05-07 16:44 | 30.79424 | -101.48251 | 34124 ft | 402 kts | 270° |
| 2026-05-07 16:45 | 30.80144 | -101.54722 | 34120 ft | 403 kts | 270° |
| 2026-05-07 16:45 | 30.80862 | -101.61203 | 34119 ft | 404 kts | 270° |
| 2026-05-07 16:46 | 30.81577 | -101.67684 | 34128 ft | 404 kts | 270° |
| 2026-05-07 16:46 | 30.82284 | -101.74132 | 34120 ft | 404 kts | 270° |
| 2026-05-07 16:47 | 30.82994 | -101.80627 | 34111 ft | 404 kts | 270° |
| 2026-05-07 16:47 | 30.83701 | -101.87123 | 34107 ft | 404 kts | 270° |
| 2026-05-07 16:48 | 30.84402 | -101.93601 | 34097 ft | 403 kts | 270° |
| 2026-05-07 16:48 | 30.85099 | -102.00073 | 34111 ft | 403 kts | 270° |
| 2026-05-07 16:49 | 30.85793 | -102.06552 | 34115 ft | 403 kts | 270° |
| 2026-05-07 16:49 | 30.86480 | -102.12995 | 34097 ft | 404 kts | 270° |
| 2026-05-07 16:50 | 30.87169 | -102.19488 | 34105 ft | 403 kts | 270° |
| 2026-05-07 16:50 | 30.87854 | -102.25971 | 34097 ft | 404 kts | 270° |
| 2026-05-07 16:51 | 30.88536 | -102.32453 | 34100 ft | 403 kts | 270° |
| 2026-05-07 16:51 | 30.89215 | -102.38944 | 34095 ft | 403 kts | 270° |
| 2026-05-07 16:52 | 30.89890 | -102.45430 | 34096 ft | 404 kts | 270° |
| 2026-05-07 16:52 | 30.90559 | -102.51891 | 34096 ft | 404 kts | 270° |
| 2026-05-07 16:53 | 30.91229 | -102.58385 | 34123 ft | 404 kts | 270° |
| 2026-05-07 16:53 | 30.91783 | -102.63789 | 34141 ft | 403 kts | 270° |
| 2026-05-07 16:54 | 30.92446 | -102.70277 | 34166 ft | 403 kts | 270° |
| 2026-05-07 16:54 | 30.93106 | -102.76769 | 34181 ft | 403 kts | 270° |
| 2026-05-07 16:55 | 30.93756 | -102.83203 | 34188 ft | 403 kts | 269° |
| 2026-05-07 16:55 | 30.94083 | -102.86443 | 34082 ft | 403 kts | 269° |
| 2026-05-07 16:55 | 30.94409 | -102.89685 | 34088 ft | 402 kts | 269° |
| 2026-05-07 16:56 | 30.95066 | -102.96161 | 34077 ft | 403 kts | 271° |
| 2026-05-07 16:56 | 30.97411 | -103.05739 | 34077 ft | 413 kts | 279° |
| 2026-05-07 16:57 | 30.99191 | -103.12094 | 34076 ft | 412 kts | 279° |
| 2026-05-07 16:57 | 31.00950 | -103.18451 | 34083 ft | 412 kts | 279° |
| 2026-05-07 16:58 | 31.02692 | -103.24790 | 34085 ft | 412 kts | 279° |
| 2026-05-07 16:58 | 31.04437 | -103.31163 | 34083 ft | 412 kts | 279° |
| 2026-05-07 16:59 | 31.06181 | -103.37543 | 34094 ft | 412 kts | 279° |
| 2026-05-07 16:59 | 31.07918 | -103.43914 | 34109 ft | 412 kts | 279° |
| 2026-05-07 17:00 | 31.09656 | -103.50300 | 34147 ft | 413 kts | 278° |
| 2026-05-07 17:00 | 31.11387 | -103.56677 | 34132 ft | 413 kts | 278° |
| 2026-05-07 17:01 | 31.13117 | -103.63058 | 34123 ft | 412 kts | 278° |
| 2026-05-07 17:01 | 31.14840 | -103.69431 | 34122 ft | 412 kts | 278° |
| 2026-05-07 17:02 | 31.16559 | -103.75802 | 34113 ft | 411 kts | 278° |
| 2026-05-07 17:02 | 31.18271 | -103.82164 | 34102 ft | 411 kts | 278° |
| 2026-05-07 17:03 | 31.19982 | -103.88534 | 34091 ft | 410 kts | 278° |
| 2026-05-07 17:03 | 31.21674 | -103.94850 | 34096 ft | 410 kts | 278° |
| 2026-05-07 17:04 | 31.23375 | -104.01212 | 34096 ft | 410 kts | 278° |
| 2026-05-07 17:04 | 31.25074 | -104.07579 | 34096 ft | 410 kts | 278° |
| 2026-05-07 17:05 | 31.26771 | -104.13954 | 34098 ft | 410 kts | 278° |
| 2026-05-07 17:05 | 31.28465 | -104.20330 | 34131 ft | 411 kts | 278° |
| 2026-05-07 17:06 | 31.30158 | -104.26721 | 34105 ft | 412 kts | 278° |
| 2026-05-07 17:06 | 31.31842 | -104.33086 | 34095 ft | 412 kts | 278° |
| 2026-05-07 17:07 | 31.33533 | -104.39494 | 34095 ft | 412 kts | 278° |
| 2026-05-07 17:07 | 31.35221 | -104.45907 | 34087 ft | 412 kts | 278° |
| 2026-05-07 17:08 | 31.36909 | -104.52330 | 34082 ft | 412 kts | 278° |
| 2026-05-07 17:08 | 31.38591 | -104.58748 | 34087 ft | 412 kts | 278° |
| 2026-05-07 17:09 | 31.40271 | -104.65170 | 34073 ft | 412 kts | 278° |
| 2026-05-07 17:09 | 31.41933 | -104.71542 | 34076 ft | 412 kts | 278° |
| 2026-05-07 17:10 | 31.43601 | -104.77947 | 34075 ft | 411 kts | 277° |
| 2026-05-07 17:10 | 31.45265 | -104.84352 | 34076 ft | 411 kts | 277° |
| 2026-05-07 17:11 | 31.46924 | -104.90755 | 34096 ft | 410 kts | 277° |
| 2026-05-07 17:11 | 31.48575 | -104.97142 | 34075 ft | 409 kts | 277° |
| 2026-05-07 17:12 | 31.50223 | -105.03532 | 34083 ft | 410 kts | 277° |
| 2026-05-07 17:12 | 31.51872 | -105.09941 | 34067 ft | 411 kts | 277° |
| 2026-05-07 17:13 | 31.53513 | -105.16332 | 34051 ft | 412 kts | 277° |
| 2026-05-07 17:13 | 31.55163 | -105.22774 | 34042 ft | 413 kts | 277° |
| 2026-05-07 17:14 | 31.56813 | -105.29228 | 34060 ft | 413 kts | 277° |
| 2026-05-07 17:14 | 31.58455 | -105.35663 | 34047 ft | 413 kts | 277° |
| 2026-05-07 17:15 | 31.60101 | -105.42134 | 34035 ft | 413 kts | 277° |
| 2026-05-07 17:15 | 31.61742 | -105.48607 | 34033 ft | 413 kts | 277° |
| 2026-05-07 17:16 | 31.63369 | -105.55044 | 34036 ft | 413 kts | 277° |
| 2026-05-07 17:16 | 31.65001 | -105.61512 | 34056 ft | 413 kts | 277° |
| 2026-05-07 17:17 | 31.66632 | -105.67997 | 34031 ft | 414 kts | 277° |
| 2026-05-07 17:17 | 31.68253 | -105.74452 | 34024 ft | 414 kts | 277° |
| 2026-05-07 17:18 | 31.69886 | -105.80970 | 34017 ft | 414 kts | 277° |
| 2026-05-07 17:18 | 31.71502 | -105.87434 | 34013 ft | 415 kts | 277° |
| 2026-05-07 17:19 | 31.73125 | -105.93946 | 33998 ft | 414 kts | 277° |
| 2026-05-07 17:19 | 31.74743 | -106.00452 | 34042 ft | 414 kts | 277° |
| 2026-05-07 17:20 | 31.76357 | -106.06958 | 34052 ft | 415 kts | 277° |
| 2026-05-07 17:20 | 31.77961 | -106.13439 | 34072 ft | 415 kts | 277° |
| 2026-05-07 17:21 | 31.79572 | -106.19960 | 34106 ft | 415 kts | 277° |
| 2026-05-07 17:21 | 31.81441 | -106.26430 | 34133 ft | 426 kts | 286° |
| 2026-05-07 17:22 | 31.84679 | -106.32395 | 34140 ft | 446 kts | 301° |
| 2026-05-07 17:22 | 31.88850 | -106.37845 | 34144 ft | 449 kts | 302° |
| 2026-05-07 17:23 | 31.93079 | -106.43283 | 34135 ft | 449 kts | 302° |
| 2026-05-07 17:23 | 31.97264 | -106.48734 | 34093 ft | 448 kts | 302° |
| 2026-05-07 17:24 | 32.01398 | -106.54166 | 34092 ft | 447 kts | 301° |
| 2026-05-07 17:24 | 32.05526 | -106.59611 | 34105 ft | 447 kts | 302° |
| 2026-05-07 17:25 | 32.09679 | -106.65093 | 34072 ft | 448 kts | 302° |
| 2026-05-07 17:25 | 32.13846 | -106.70600 | 34066 ft | 448 kts | 302° |
| 2026-05-07 17:26 | 32.17983 | -106.76075 | 34025 ft | 449 kts | 302° |
| 2026-05-07 17:26 | 32.22142 | -106.81587 | 33984 ft | 448 kts | 302° |
| 2026-05-07 17:27 | 32.26271 | -106.87068 | 33979 ft | 448 kts | 302° |
| 2026-05-07 17:27 | 32.28348 | -106.89827 | 34157 ft | 448 kts | 302° |
| 2026-05-07 17:27 | 32.30425 | -106.92588 | 34156 ft | 449 kts | 302° |
| 2026-05-07 17:28 | 32.34572 | -106.98110 | 33977 ft | 449 kts | 302° |
| 2026-05-07 17:28 | 32.38703 | -107.03621 | 33974 ft | 449 kts | 302° |
| 2026-05-07 17:29 | 32.42858 | -107.09171 | 33979 ft | 450 kts | 302° |
| 2026-05-07 17:29 | 32.46999 | -107.14710 | 33975 ft | 450 kts | 302° |
| 2026-05-07 17:30 | 32.51135 | -107.20254 | 33986 ft | 452 kts | 302° |
| 2026-05-07 17:30 | 32.55319 | -107.25870 | 33973 ft | 454 kts | 302° |
| 2026-05-07 17:31 | 32.59501 | -107.31489 | 33978 ft | 454 kts | 302° |
| 2026-05-07 17:31 | 32.63659 | -107.37083 | 33981 ft | 454 kts | 302° |
| 2026-05-07 17:32 | 32.67837 | -107.42716 | 33986 ft | 454 kts | 302° |
| 2026-05-07 17:32 | 32.71304 | -107.47397 | 34008 ft | 454 kts | 302° |
| 2026-05-07 17:33 | 32.76171 | -107.53978 | 34000 ft | 455 kts | 302° |
| 2026-05-07 17:33 | 32.80330 | -107.59612 | 34000 ft | 456 kts | 302° |
| 2026-05-07 17:34 | 32.84520 | -107.65295 | 34001 ft | 457 kts | 302° |
| 2026-05-07 17:34 | 32.88714 | -107.70992 | 33999 ft | 457 kts | 302° |
| 2026-05-07 17:35 | 32.92885 | -107.76668 | 34009 ft | 458 kts | 303° |
| 2026-05-07 17:35 | 32.97087 | -107.82395 | 34002 ft | 459 kts | 304° |
| 2026-05-07 17:36 | 33.01303 | -107.88148 | 34017 ft | 460 kts | 304° |
| 2026-05-07 17:36 | 33.05515 | -107.93908 | 34000 ft | 460 kts | 304° |
| 2026-05-07 17:37 | 33.09698 | -107.99636 | 34008 ft | 461 kts | 304° |
| 2026-05-07 17:37 | 33.13914 | -108.05418 | 33984 ft | 461 kts | 304° |
| 2026-05-07 17:38 | 33.18099 | -108.11168 | 33985 ft | 460 kts | 305° |
| 2026-05-07 17:38 | 33.22290 | -108.16931 | 33992 ft | 459 kts | 305° |
| 2026-05-07 17:39 | 33.26495 | -108.22670 | 33995 ft | 458 kts | 305° |
| 2026-05-07 17:39 | 33.30700 | -108.28393 | 34005 ft | 458 kts | 305° |
| 2026-05-07 17:40 | 33.34880 | -108.34095 | 33992 ft | 457 kts | 305° |
| 2026-05-07 17:40 | 33.39058 | -108.39811 | 34000 ft | 457 kts | 306° |
| 2026-05-07 17:41 | 33.43236 | -108.45538 | 34006 ft | 456 kts | 307° |
| 2026-05-07 17:41 | 33.47420 | -108.51282 | 34005 ft | 456 kts | 307° |
| 2026-05-07 17:42 | 33.50892 | -108.56053 | 34002 ft | 457 kts | 307° |
| 2026-05-07 17:42 | 33.55759 | -108.62754 | 34010 ft | 457 kts | 307° |
| 2026-05-07 17:43 | 33.59921 | -108.68495 | 33995 ft | 458 kts | 308° |
| 2026-05-07 17:43 | 33.63401 | -108.73302 | 33990 ft | 458 kts | 308° |
| 2026-05-07 17:44 | 33.67587 | -108.79092 | 34003 ft | 458 kts | 309° |
| 2026-05-07 17:44 | 33.71746 | -108.84858 | 33992 ft | 459 kts | 309° |
| 2026-05-07 17:45 | 33.75936 | -108.90671 | 33996 ft | 460 kts | 309° |
| 2026-05-07 17:45 | 33.80139 | -108.96513 | 34000 ft | 462 kts | 310° |
| 2026-05-07 17:46 | 33.84322 | -109.02337 | 34009 ft | 463 kts | 310° |
| 2026-05-07 17:46 | 33.88549 | -109.08230 | 34060 ft | 464 kts | 310° |
| 2026-05-07 17:47 | 33.92769 | -109.14127 | 34124 ft | 465 kts | 311° |
| 2026-05-07 17:47 | 33.97000 | -109.20048 | 34177 ft | 466 kts | 311° |
| 2026-05-07 17:48 | 34.01233 | -109.25980 | 34238 ft | 467 kts | 311° |
| 2026-05-07 17:48 | 34.05449 | -109.31899 | 34268 ft | 468 kts | 311° |
| 2026-05-07 17:49 | 34.09701 | -109.37878 | 34262 ft | 468 kts | 311° |
| 2026-05-07 17:49 | 34.13913 | -109.43813 | 34255 ft | 468 kts | 311° |
| 2026-05-07 17:50 | 34.18141 | -109.49806 | 34204 ft | 468 kts | 312° |
| 2026-05-07 17:50 | 34.22300 | -109.55872 | 34163 ft | 467 kts | 312° |
| 2026-05-07 17:51 | 34.26399 | -109.61904 | 34117 ft | 465 kts | 311° |
| 2026-05-07 17:51 | 34.30499 | -109.67955 | 34058 ft | 464 kts | 311° |
| 2026-05-07 17:52 | 34.34595 | -109.74011 | 34149 ft | 464 kts | 311° |
| 2026-05-07 17:52 | 34.38656 | -109.80019 | 34158 ft | 463 kts | 311° |
| 2026-05-07 17:53 | 34.42736 | -109.86092 | 34138 ft | 463 kts | 312° |
| 2026-05-07 17:53 | 34.46768 | -109.92137 | 34011 ft | 462 kts | 311° |
| 2026-05-07 17:54 | 34.50809 | -109.98215 | 33998 ft | 462 kts | 311° |
| 2026-05-07 17:54 | 34.54820 | -110.04257 | 33978 ft | 462 kts | 311° |
| 2026-05-07 17:55 | 34.58855 | -110.10332 | 33976 ft | 461 kts | 311° |
| 2026-05-07 17:55 | 34.62892 | -110.16399 | 33976 ft | 461 kts | 312° |
| 2026-05-07 17:56 | 34.66918 | -110.22475 | 33977 ft | 460 kts | 311° |
| 2026-05-07 17:56 | 34.70905 | -110.28510 | 33971 ft | 460 kts | 311° |
| 2026-05-07 17:57 | 34.74245 | -110.33573 | 33958 ft | 460 kts | 311° |
| 2026-05-07 17:57 | 34.78908 | -110.40647 | 33939 ft | 460 kts | 311° |
| 2026-05-07 17:58 | 34.82915 | -110.46727 | 33936 ft | 460 kts | 311° |
| 2026-05-07 17:58 | 34.86916 | -110.52822 | 33941 ft | 461 kts | 312° |
| 2026-05-07 17:59 | 34.90885 | -110.58908 | 33933 ft | 461 kts | 311° |
| 2026-05-07 17:59 | 34.94874 | -110.65045 | 34082 ft | 461 kts | 312° |
| 2026-05-07 18:00 | 34.98835 | -110.71211 | 34105 ft | 461 kts | 311° |
| 2026-05-07 18:00 | 35.02771 | -110.77394 | 34122 ft | 460 kts | 311° |
| 2026-05-07 18:01 | 35.06663 | -110.83525 | 34123 ft | 459 kts | 312° |
| 2026-05-07 18:01 | 35.10554 | -110.89710 | 34085 ft | 459 kts | 311° |
| 2026-05-07 18:02 | 35.16356 | -110.98979 | 33984 ft | 458 kts | 311° |
| 2026-05-07 18:03 | 35.20225 | -111.05169 | 33997 ft | 457 kts | 311° |
| 2026-05-07 18:03 | 35.24086 | -111.11351 | 34013 ft | 456 kts | 311° |
| 2026-05-07 18:04 | 35.27937 | -111.17525 | 34011 ft | 455 kts | 312° |
| 2026-05-07 18:04 | 35.31747 | -111.23669 | 33986 ft | 455 kts | 311° |
| 2026-05-07 18:05 | 35.35585 | -111.29846 | 34006 ft | 455 kts | 311° |
| 2026-05-07 18:05 | 35.39429 | -111.36010 | 34021 ft | 454 kts | 311° |
| 2026-05-07 18:06 | 35.43243 | -111.42122 | 34033 ft | 453 kts | 311° |
| 2026-05-07 18:06 | 35.47070 | -111.48257 | 34041 ft | 453 kts | 311° |
| 2026-05-07 18:07 | 35.50904 | -111.54401 | 34040 ft | 453 kts | 311° |
| 2026-05-07 18:07 | 35.54750 | -111.60532 | 34051 ft | 452 kts | 311° |
| 2026-05-07 18:08 | 35.58598 | -111.66646 | 34071 ft | 452 kts | 311° |
| 2026-05-07 18:08 | 35.62416 | -111.72708 | 34061 ft | 451 kts | 311° |
| 2026-05-07 18:09 | 35.66264 | -111.78822 | 34048 ft | 451 kts | 311° |
| 2026-05-07 18:09 | 35.70108 | -111.84931 | 34027 ft | 451 kts | 311° |
| 2026-05-07 18:10 | 35.73934 | -111.90996 | 34012 ft | 451 kts | 311° |
| 2026-05-07 18:10 | 35.77786 | -111.97097 | 33996 ft | 450 kts | 311° |
| 2026-05-07 18:11 | 35.81636 | -112.03196 | 33988 ft | 450 kts | 311° |
| 2026-05-07 18:11 | 35.85459 | -112.09255 | 33981 ft | 450 kts | 311° |
| 2026-05-07 18:11 | 35.87385 | -112.12305 | 34199 ft | 450 kts | 311° |
| 2026-05-07 18:12 | 35.89310 | -112.15350 | 34194 ft | 450 kts | 311° |
| 2026-05-07 18:12 | 35.93167 | -112.21456 | 34198 ft | 450 kts | 311° |
| 2026-05-07 18:13 | 35.96991 | -112.27519 | 34186 ft | 450 kts | 311° |
| 2026-05-07 18:13 | 36.00851 | -112.33644 | 34140 ft | 450 kts | 311° |
| 2026-05-07 18:14 | 36.04678 | -112.39717 | 34100 ft | 450 kts | 311° |
| 2026-05-07 18:14 | 36.08534 | -112.45813 | 34055 ft | 449 kts | 311° |
| 2026-05-07 18:15 | 36.12394 | -112.51911 | 33997 ft | 449 kts | 311° |
| 2026-05-07 18:15 | 36.16225 | -112.57970 | 33994 ft | 449 kts | 311° |
| 2026-05-07 18:16 | 36.20083 | -112.64078 | 33988 ft | 449 kts | 311° |
| 2026-05-07 18:16 | 36.23911 | -112.70144 | 33999 ft | 449 kts | 311° |
| 2026-05-07 18:17 | 36.27770 | -112.76262 | 34022 ft | 449 kts | 311° |
| 2026-05-07 18:17 | 36.31602 | -112.82344 | 34009 ft | 450 kts | 311° |
| 2026-05-07 18:18 | 36.35444 | -112.88464 | 34019 ft | 450 kts | 311° |
| 2026-05-07 18:18 | 36.39288 | -112.94595 | 34026 ft | 450 kts | 311° |
| 2026-05-07 18:19 | 36.43156 | -113.00734 | 34041 ft | 450 kts | 311° |
| 2026-05-07 18:19 | 36.46995 | -113.06812 | 34057 ft | 449 kts | 311° |
| 2026-05-07 18:20 | 36.50860 | -113.12932 | 34053 ft | 449 kts | 311° |
| 2026-05-07 18:20 | 36.54698 | -113.19020 | 34071 ft | 449 kts | 311° |
| 2026-05-07 18:21 | 36.58564 | -113.25145 | 34072 ft | 448 kts | 311° |
| 2026-05-07 18:21 | 36.62432 | -113.31237 | 34097 ft | 448 kts | 311° |
| 2026-05-07 18:22 | 36.66301 | -113.37322 | 34106 ft | 448 kts | 311° |
| 2026-05-07 18:22 | 36.70136 | -113.43370 | 34106 ft | 448 kts | 306° |
| 2026-05-07 18:22 | 36.71159 | -113.47107 | 33621 ft | 464 kts | 279° |
| 2026-05-07 18:23 | 36.70991 | -113.51111 | 33721 ft | 469 kts | 260° |
| 2026-05-07 18:23 | 36.69755 | -113.54921 | 33407 ft | 482 kts | 239° |
| 2026-05-07 18:23 | 36.67520 | -113.58056 | 33150 ft | 488 kts | 219° |
| 2026-05-07 18:23 | 36.64557 | -113.60115 | 32890 ft | 490 kts | 199° |
| 2026-05-07 18:24 | 36.61219 | -113.60845 | 32639 ft | 489 kts | 178° |
| 2026-05-07 18:24 | 36.57888 | -113.60172 | 32381 ft | 485 kts | 158° |
| 2026-05-07 18:24 | 36.54945 | -113.58198 | 32143 ft | 479 kts | 141° |
| 2026-05-07 18:24 | 36.52108 | -113.56020 | 31877 ft | 484 kts | 155° |
| 2026-05-07 18:25 | 36.48842 | -113.54940 | 31633 ft | 488 kts | 173° |
| 2026-05-07 18:25 | 36.45442 | -113.54897 | 31411 ft | 490 kts | 183° |
| 2026-05-07 18:25 | 36.42066 | -113.55018 | 31175 ft | 491 kts | 178° |
| 2026-05-07 18:25 | 36.38640 | -113.54881 | 30932 ft | 492 kts | 176° |
| 2026-05-07 18:26 | 36.35212 | -113.54621 | 30729 ft | 492 kts | 175° |
| 2026-05-07 18:26 | 36.31793 | -113.54322 | 30528 ft | 493 kts | 175° |
| 2026-05-07 18:26 | 36.28368 | -113.54026 | 30342 ft | 493 kts | 175° |
| 2026-05-07 18:26 | 36.24934 | -113.53749 | 30148 ft | 494 kts | 175° |
| 2026-05-07 18:27 | 36.21501 | -113.53492 | 29929 ft | 494 kts | 175° |
| 2026-05-07 18:27 | 36.18101 | -113.53250 | 29714 ft | 495 kts | 175° |
| 2026-05-07 18:27 | 36.14660 | -113.53013 | 29498 ft | 496 kts | 176° |
| 2026-05-07 18:27 | 36.12329 | -113.52855 | 29349 ft | 496 kts | 176° |
| 2026-05-07 18:28 | 36.07761 | -113.52544 | 29131 ft | 495 kts | 176° |
| 2026-05-07 18:28 | 36.04322 | -113.52310 | 28962 ft | 495 kts | 176° |
| 2026-05-07 18:28 | 36.00882 | -113.52074 | 28808 ft | 495 kts | 175° |
| 2026-05-07 18:28 | 35.97441 | -113.51837 | 28636 ft | 495 kts | 176° |
| 2026-05-07 18:29 | 35.93992 | -113.51600 | 28480 ft | 496 kts | 176° |
| 2026-05-07 18:29 | 35.90545 | -113.51363 | 28284 ft | 495 kts | 176° |
| 2026-05-07 18:29 | 35.87098 | -113.51126 | 27389 ft | 493 kts | 176° |
| 2026-05-07 18:29 | 35.83696 | -113.50893 | 26739 ft | 486 kts | 176° |
| 2026-05-07 18:30 | 35.80375 | -113.50675 | 26065 ft | 480 kts | 177° |
| 2026-05-07 18:30 | 35.77075 | -113.51103 | 25419 ft | 475 kts | 196° |
| 2026-05-07 18:30 | 35.74077 | -113.52730 | 24813 ft | 469 kts | 213° |
| 2026-05-07 18:30 | 35.71575 | -113.55235 | 24159 ft | 462 kts | 229° |
| 2026-05-07 18:31 | 35.69709 | -113.58404 | 23627 ft | 453 kts | 244° |
| 2026-05-07 18:31 | 35.68867 | -113.60742 | 23224 ft | 447 kts | 253° |
| 2026-05-07 18:31 | 35.68168 | -113.64415 | 22695 ft | 435 kts | 266° |
| 2026-05-07 18:31 | 35.68159 | -113.68080 | 22197 ft | 426 kts | 281° |
| 2026-05-07 18:32 | 35.68886 | -113.72838 | 21586 ft | 429 kts | 285° |
| 2026-05-07 18:32 | 35.69511 | -113.76427 | 21107 ft | 428 kts | 285° |
| 2026-05-07 18:32 | 35.69932 | -113.78834 | 20788 ft | 425 kts | 285° |
| 2026-05-07 18:32 | 35.70534 | -113.82341 | 20330 ft | 422 kts | 284° |
| 2026-05-07 18:33 | 35.71124 | -113.85885 | 19877 ft | 420 kts | 284° |
| 2026-05-07 18:33 | 35.71698 | -113.89399 | 19418 ft | 418 kts | 284° |
| 2026-05-07 18:33 | 35.72262 | -113.92898 | 18971 ft | 415 kts | 283° |
| 2026-05-07 18:33 | 35.72821 | -113.96374 | 18526 ft | 413 kts | 283° |
| 2026-05-07 18:34 | 35.73372 | -113.99812 | 18031 ft | 407 kts | 283° |
| 2026-05-07 18:34 | 35.73916 | -114.03210 | 17547 ft | 398 kts | 283° |
| 2026-05-07 18:34 | 35.74438 | -114.06473 | 17089 ft | 390 kts | 283° |
| 2026-05-07 18:34 | 35.74959 | -114.09731 | 16597 ft | 381 kts | 283° |
| 2026-05-07 18:35 | 35.75458 | -114.12870 | 16173 ft | 365 kts | 283° |
| 2026-05-07 18:35 | 35.76037 | -114.15845 | 15769 ft | 348 kts | 295° |
| 2026-05-07 18:35 | 35.77138 | -114.18403 | 15471 ft | 330 kts | 302° |
| 2026-05-07 18:35 | 35.78255 | -114.20836 | 15164 ft | 324 kts | 302° |
| 2026-05-07 18:36 | 35.79351 | -114.23258 | 14858 ft | 322 kts | 302° |
| 2026-05-07 18:36 | 35.80411 | -114.25629 | 14556 ft | 319 kts | 301° |
| 2026-05-07 18:36 | 35.81471 | -114.28022 | 14248 ft | 317 kts | 301° |
| 2026-05-07 18:36 | 35.82520 | -114.30397 | 13953 ft | 314 kts | 301° |
| 2026-05-07 18:37 | 35.83561 | -114.32757 | 13622 ft | 312 kts | 301° |
| 2026-05-07 18:37 | 35.84701 | -114.35014 | 13286 ft | 305 kts | 309° |
| 2026-05-07 18:37 | 35.85989 | -114.37074 | 12999 ft | 302 kts | 311° |
| 2026-05-07 18:37 | 35.87298 | -114.39085 | 12686 ft | 300 kts | 311° |
| 2026-05-07 18:38 | 35.88595 | -114.41089 | 12399 ft | 298 kts | 311° |
| 2026-05-07 18:38 | 35.89871 | -114.43088 | 12129 ft | 297 kts | 310° |
| 2026-05-07 18:38 | 35.91123 | -114.45071 | 11850 ft | 296 kts | 310° |
| 2026-05-07 18:38 | 35.92379 | -114.47076 | 11563 ft | 295 kts | 310° |
| 2026-05-07 18:39 | 35.93629 | -114.49080 | 11281 ft | 294 kts | 310° |
| 2026-05-07 18:39 | 35.94874 | -114.51079 | 11003 ft | 293 kts | 310° |
| 2026-05-07 18:39 | 35.96116 | -114.53076 | 10721 ft | 292 kts | 309° |
| 2026-05-07 18:39 | 35.97346 | -114.55070 | 10445 ft | 291 kts | 309° |
| 2026-05-07 18:40 | 35.98570 | -114.57061 | 10168 ft | 289 kts | 309° |
| 2026-05-07 18:40 | 35.99785 | -114.59035 | 9884 ft | 287 kts | 309° |
| 2026-05-07 18:40 | 36.00987 | -114.60987 | 9572 ft | 284 kts | 309° |
| 2026-05-07 18:40 | 36.02164 | -114.62900 | 9299 ft | 281 kts | 309° |
| 2026-05-07 18:41 | 36.03345 | -114.64821 | 9017 ft | 279 kts | 308° |
| 2026-05-07 18:41 | 36.04452 | -114.66782 | 8718 ft | 276 kts | 303° |
| 2026-05-07 18:41 | 36.05436 | -114.68803 | 8475 ft | 271 kts | 302° |
| 2026-05-07 18:41 | 36.06387 | -114.70778 | 8189 ft | 263 kts | 302° |
| 2026-05-07 18:42 | 36.07211 | -114.72748 | 7905 ft | 257 kts | 289° |
| 2026-05-07 18:42 | 36.07501 | -114.74908 | 7622 ft | 252 kts | 274° |
| 2026-05-07 18:42 | 36.07472 | -114.77053 | 7351 ft | 249 kts | 270° |
| 2026-05-07 18:42 | 36.07434 | -114.79193 | 7094 ft | 249 kts | 271° |
| 2026-05-07 18:43 | 36.07428 | -114.81296 | 6893 ft | 248 kts | 271° |
| 2026-05-07 18:43 | 36.07424 | -114.83439 | 6594 ft | 250 kts | 271° |
| 2026-05-07 18:43 | 36.07417 | -114.85579 | 6284 ft | 245 kts | 270° |
| 2026-05-07 18:43 | 36.07410 | -114.87646 | 5951 ft | 234 kts | 271° |
| 2026-05-07 18:44 | 36.07405 | -114.89597 | 5636 ft | 224 kts | 271° |
| 2026-05-07 18:44 | 36.07400 | -114.91492 | 5353 ft | 218 kts | 271° |
| 2026-05-07 18:44 | 36.07395 | -114.93352 | 5067 ft | 214 kts | 271° |
| 2026-05-07 18:44 | 36.07391 | -114.95180 | 4784 ft | 211 kts | 271° |
| 2026-05-07 18:45 | 36.07387 | -114.96985 | 4535 ft | 209 kts | 271° |
| 2026-05-07 18:45 | 36.07384 | -114.98784 | 4264 ft | 207 kts | 271° |
| 2026-05-07 18:45 | 36.07381 | -115.00550 | 3990 ft | 204 kts | 271° |
| 2026-05-07 18:45 | 36.07380 | -115.02302 | 3730 ft | 203 kts | 271° |
| 2026-05-07 18:46 | 36.07375 | -115.04001 | 3471 ft | 195 kts | 271° |
| 2026-05-07 18:46 | 36.07372 | -115.05638 | 3216 ft | 187 kts | 271° |
| 2026-05-07 18:46 | 36.07370 | -115.07203 | 2972 ft | 175 kts | 271° |
| 2026-05-07 18:46 | 36.07369 | -115.08667 | 2712 ft | 166 kts | 271° |
| 2026-05-07 18:47 | 36.07368 | -115.10088 | 2514 ft | 165 kts | 271° |
| 2026-05-07 18:47 | 36.07372 | -115.11493 | 2255 ft | 164 kts | 270° |
| 2026-05-07 18:47 | 36.07361 | -115.12873 | 2077 ft | 153 kts | 271° |
| 2026-05-07 18:47 | 36.07365 | -115.14064 | 2102 ft | 119 kts | 270° |
| 2026-05-07 18:48 | 36.07364 | -115.14616 | 2119 ft | 49 kts | 270° |
| 2026-05-07 18:48 | 36.07407 | -115.14904 | 2127 ft | 30 kts | 292° |
| 2026-05-07 18:48 | 36.07497 | -115.15094 | 2127 ft | 11 kts | 309° |
| 2026-05-07 18:48 | 36.07560 | -115.15147 | 2129 ft | 11 kts | 332° |
| 2026-05-07 18:49 | 36.07626 | -115.15185 | 2131 ft | 10 kts | 335° |
| 2026-05-07 18:49 | 36.07690 | -115.15221 | 2133 ft | 10 kts | 335° |
| 2026-05-07 18:49 | 36.07751 | -115.15258 | 2133 ft | 10 kts | 333° |
| 2026-05-07 18:49 | 36.07812 | -115.15292 | 2136 ft | 9 kts | 338° |
| 2026-05-07 18:50 | 36.07871 | -115.15275 | 2135 ft | 11 kts | 58° |
| 2026-05-07 18:50 | 36.07872 | -115.15172 | 2129 ft | 13 kts | 98° |
| 2026-05-07 18:50 | 36.07875 | -115.15051 | 2126 ft | 15 kts | 95° |
| 2026-05-07 18:50 | 36.07866 | -115.14913 | 2122 ft | 17 kts | 95° |
| 2026-05-07 18:51 | 36.07858 | -115.14777 | 2115 ft | 16 kts | 92° |
| 2026-05-07 18:51 | 36.07848 | -115.14623 | 2108 ft | 19 kts | 97° |
| 2026-05-07 18:51 | 36.07836 | -115.14462 | 2104 ft | 18 kts | 93° |
| 2026-05-07 18:51 | 36.07828 | -115.14305 | 2100 ft | 19 kts | 91° |
| 2026-05-07 18:52 | 36.07828 | -115.14126 | 2093 ft | 22 kts | 91° |
| 2026-05-07 18:52 | 36.07829 | -115.13942 | 2093 ft | 21 kts | 89° |
| 2026-05-07 18:52 | 36.07828 | -115.13762 | 2089 ft | 21 kts | 92° |
| 2026-05-07 18:52 | 36.07822 | -115.13575 | 2085 ft | 21 kts | 88° |
| 2026-05-07 18:53 | 36.07825 | -115.13431 | 2083 ft | 8 kts | 89° |
| 2026-05-07 18:53 | 36.07855 | -115.13370 | 2081 ft | 10 kts | 12° |
| 2026-05-07 18:53 | 36.07922 | -115.13371 | 2081 ft | 10 kts | 359° |
| 2026-05-07 18:53 | 36.07987 | -115.13371 | 2081 ft | 9 kts | 1° |
| 2026-05-07 18:54 | 36.08051 | -115.13370 | 2082 ft | 9 kts | 1° |
| 2026-05-07 18:54 | 36.08112 | -115.13370 | 2083 ft | 9 kts | 0° |
| 2026-05-07 18:54 | 36.08172 | -115.13369 | 2084 ft | 8 kts | 2° |
| 2026-05-07 18:54 | 36.08225 | -115.13382 | 2085 ft | 7 kts | 321° |
| 2026-05-07 18:55 | 36.08244 | -115.13434 | 2087 ft | 0 kts | 286° |
| 2026-05-07 18:55 | 36.08244 | -115.13435 | 2087 ft | 1 kts | 286° |
| 2026-05-07 18:55 | 36.08248 | -115.13449 | 2088 ft | 2 kts | 290° |
| 2026-05-07 18:56 | 36.08254 | -115.13472 | 2089 ft | 2 kts | 287° |